Have a Safe July 4th! 

Flight Track Log - Related Links

Times and Time Zones

All times are in EDT time to prevent confusion due to time zone crossing. See the ASQ5941 flight status page for this flight to view local times or setup timezone preferences in your user account.

Time Position Orientation Groundspeed Altitude Reporting Facility
EDT Latitude Longitude Course Direction KTS MPH feet Rate Location/Type
Tue 04:24:52 PM 41.9333 -87.9167 80° East 155 178 1,900  Level Chicago TRACON
Tue 04:25:52 PM 41.9000 -87.8667 132° Southeast 227 261 3,400 1,085 Climbing Chicago TRACON
Tue 04:26:26 PM 41.9086 -87.8325 71° East 262 302 3,600 990 Climbing Chicago Center
Tue 04:27:29 PM 41.9189 -87.7036 84° East 280 322 5,000 1,296 Climbing Chicago Center
Tue 04:28:00 PM 42.0617 -87.2907 78° East  Level FlightAware Approximate
Tue 04:28:31 PM 41.9378 -87.5953 77° East 301 346 6,300  Level Chicago Center
Tue 04:29:00 PM 42.0856 -87.1362 77° East  Level FlightAware Approximate
Tue 04:29:33 PM 41.9731 -87.4825 67° East 322 371 8,200  Level Chicago Center
Tue 04:30:00 PM 42.1017 -86.9864 80° East  Level FlightAware Approximate
Tue 04:30:35 PM 42.0106 -87.3686 66° East 332 382 10,100  Level Chicago Center
Tue 04:31:37 PM 42.0494 -87.2511 66° East 342 394 12,200 1,790 Climbing Chicago Center
Tue 04:32:39 PM 42.0889 -87.1325 66° East 347 399 13,800 1,210 Climbing Chicago Center
Tue 04:33:41 PM 42.1142 -86.9669 78° East 377 434 14,700 726 Climbing Chicago Center
Tue 04:34:43 PM 42.1197 -86.8131 87° East 405 466 15,300 823 Climbing Chicago Center
Tue 04:35:45 PM 42.1258 -86.6481 87° East 417 480 16,400 1,016 Climbing Chicago Center
Tue 04:36:47 PM 42.1328 -86.4872 87° East 428 493 17,400 1,016 Climbing Chicago Center
Tue 04:37:49 PM 42.1375 -86.3286 88° East 426 490 18,500 1,016 Climbing Chicago Center
Tue 04:38:51 PM 42.1428 -86.1675 87° East 429 494 19,500 1,210 Climbing Chicago Center
Tue 04:39:53 PM 42.1433 -86.0067 90° East 430 495 21,000 1,790 Climbing Chicago Center
Tue 04:40:55 PM 42.1428 -85.8336 90° East 419 482 23,200 1,872 Climbing Chicago Center
Tue 04:41:58 PM 42.1408 -85.6872 91° East 405 466 24,900 864 Climbing Chicago Center
Tue 04:43:00 PM 42.1389 -85.5389 91° East 399 459 25,000 48 Climbing Chicago Center
Tue 04:44:02 PM 42.1372 -85.3725 91° East 429 494 25,000  Level Chicago Center
Tue 04:45:04 PM 42.1350 -85.1619 91° East 466 536 25,000  Level Chicago Center
Tue 04:46:06 PM 42.1328 -84.9861 91° East 471 542 25,000  Level Chicago Center
Tue 04:47:08 PM 42.1283 -84.8106 92° East 472 543 25,000  Level Chicago Center
Tue 04:48:11 PM 42.1231 -84.6358 92° East 470 541 25,000  Level Chicago Center
Tue 04:49:12 PM 42.1178 -84.4619 92° East 468 539 25,000  Level Chicago Center
Tue 04:50:12 PM 42.1089 -84.2808 94° East 470 541 25,000  Level Cleveland Center
Tue 04:51:12 PM 42.1039 -84.1042 92° East 465 535 25,000  Level Cleveland Center
Tue 04:52:12 PM 42.0967 -83.9275 93° East 465 535 25,000  Level Cleveland Center
Tue 04:53:12 PM 42.0914 -83.7508 92° East 470 541 25,000  Level Cleveland Center
Tue 04:54:12 PM 42.0819 -83.5572 94° East 470 541 25,000  Level Cleveland Center
Tue 04:55:12 PM 42.0761 -83.3778 92° East 477 549 25,000  Level Cleveland Center
Tue 04:56:12 PM 42.0694 -83.2153 93° East 477 549 25,000  Level Cleveland Center
Tue 04:57:12 PM 42.0628 -83.0389 93° East 477 549 25,000  Level Cleveland Center
Tue 04:58:12 PM 42.0542 -82.8594 94° East 482 555 25,000  Level Cleveland Center
Tue 04:59:12 PM 42.0472 -82.6803 93° East 482 555 25,000  Level Cleveland Center
Tue 05:00:12 PM 42.0397 -82.5067 93° East 482 555 25,000  Level Cleveland Center
Tue 05:01:12 PM 42.0300 -82.3303 94° East 482 555 25,000  Level Cleveland Center
Tue 05:02:12 PM 42.0181 -82.1539 95° East 482 555 25,000  Level Cleveland Center
Tue 05:03:12 PM 42.0119 -81.9806 93° East 476 548 25,000  Level Cleveland Center
Tue 05:04:12 PM 42.0017 -81.7847 94° East 476 548 25,000  Level Cleveland Center
Tue 05:05:12 PM 41.9928 -81.6114 94° East 476 548 25,000  Level Cleveland Center
Tue 05:06:12 PM 41.9819 -81.4350 95° East 476 548 25,000  Level Cleveland Center
Tue 05:07:12 PM 41.9706 -81.2589 95° East 476 548 25,000  Level Cleveland Center
Tue 05:08:12 PM 41.9631 -81.0831 93° East 476 548 25,000  Level Cleveland Center
Tue 05:09:12 PM 41.9511 -80.9069 95° East 476 548 25,000  Level Cleveland Center
Tue 05:10:12 PM 41.9392 -80.7339 95° East 471 542 25,000  Level Cleveland Center
Tue 05:11:12 PM 41.9308 -80.5803 94° East 460 529 25,000  Level Cleveland Center
Tue 05:12:12 PM 41.9181 -80.4128 96° East 460 529 25,000  Level Cleveland Center
Tue 05:13:12 PM 41.9072 -80.2428 95° East 460 529 25,000  Level Cleveland Center
Tue 05:14:12 PM 41.8942 -80.0728 96° East 460 529 25,000  Level Cleveland Center
Tue 05:15:12 PM 41.8850 -79.9053 94° East 460 529 25,000  Level Cleveland Center
Tue 05:16:12 PM 41.8714 -79.7328 96° East 460 529 25,000  Level Cleveland Center
Tue 05:17:12 PM 41.8594 -79.5461 95° East 460 529 25,000  Level Cleveland Center
Tue 05:18:12 PM 41.8472 -79.3761 95° East 460 529 25,000  Level Cleveland Center
Tue 05:19:12 PM 41.8353 -79.2203 96° East 460 529 25,000  Level Cleveland Center
Tue 05:20:12 PM 41.8228 -79.0533 96° East 460 529 25,000  Level Cleveland Center
Tue 05:21:12 PM 41.8053 -78.8644 97° East 460 529 25,000 -200 Level Cleveland Center
Tue 05:22:12 PM 41.7903 -78.6950 97° East 460 529 24,600 -700 Descending Cleveland Center
Tue 05:23:12 PM 41.7894 -78.5250 90° East 460 529 23,600 -800 Descending Cleveland Center
Tue 05:24:12 PM 41.7944 -78.3522 88° East 460 529 23,000 -300 Descending Cleveland Center
Tue 05:25:12 PM 41.7972 -78.1822 89° East 460 529 23,000  Level Cleveland Center
Tue 05:27:15 PM 41.8017 -77.8581 89° East 444 511 23,000  Level New York Center
Tue 05:28:16 PM 41.7989 -77.6908 91° East 444 511 23,000  Level New York Center
Tue 05:29:17 PM 41.7978 -77.5292 90° East 444 511 23,000  Level New York Center
Tue 05:30:15 PM 41.7956 -77.3453 91° East 444 511 23,000  Level New York Center
Tue 05:31:15 PM 41.7919 -77.1808 92° East 449 517 23,000 -694 Level New York Center
Tue 05:32:16 PM 41.7853 -77.0328 93° East 443 510 21,600 -1,623 Descending New York Center
Tue 05:33:17 PM 41.7689 -76.8697 98° East 443 510 19,700 -2,168 Descending New York Center
Tue 05:34:15 PM 41.7211 -76.7042 111° Southeast 438 504 17,300 -2,186 Descending New York Center
Tue 05:35:15 PM 41.6781 -76.5642 112° Southeast 421 484 15,400 -1,884 Descending New York Center
Tue 05:36:16 PM 41.6406 -76.4306 111° Southeast 401 461 13,500 -1,869 Descending New York Center
Tue 05:37:17 PM 41.6064 -76.3167 112° Southeast 376 433 11,600 -1,815 Descending New York Center
Tue 05:38:15 PM 41.5667 -76.1886 112° Southeast 370 426 9,900 -1,322 Descending New York Center
Tue 05:39:15 PM 41.5194 -76.0767 119° Southeast 333 383 9,000 -1,200 Descending New York Center
Tue 05:40:15 PM 41.4811 -76.0044 125° Southeast 307 353 7,500 -1,686 Descending New York Center
Tue 05:41:16 PM 41.4425 -75.8881 114° Southeast 291 335 5,600 -1,686 Descending New York Center
Tue 05:42:16 PM 41.4364 -75.7853 95° East 273 314 4,100 -1,041 Descending New York Center
Tue 05:43:17 PM 41.4278 -75.6933 97° East 259 298 3,500 -900 Descending New York Center
Tue 05:44:16 PM 41.3953 -75.6714 153° Southeast 150 173 2,300 -1,059 Descending New York Center
Tue 05:45:16 PM 41.3669 -75.6997 217° Southwest 100 115 1,400 -500 Descending New York Center
Tue 05:46:16 PM 41.3444 -75.6900 162° South 100 115 1,300 -100 Descending New York Center

Login

Don't have an account? Register now (free) for customized features, flight alerts, and more!